Time;durP1;ratioP1;P1;durP2;ratioP2;P2;SDS_P1;SDS_P2;PMS_P1;PMS_P2;Temp;Humidity;BMP_temperature;BMP_pressure;BME280_temperature;BME280_humidity;BME280_pressure;Samples;Min_cycle;Max_cycle;Signal;HPM_P1;HPM_P2
2022/04/02 00:01:27;;;;;;;6.40;2.72;;;;;;;;;;5051514;28;20037;-76
2022/04/02 00:03:54;;;;;;;4.72;2.00;;;;;;;;;;5051298;28;20032;-76
2022/04/02 00:06:20;;;;;;;5.85;1.90;;;;;;;;;;5051339;28;20021;-76
2022/04/02 00:08:46;;;;;;;6.70;2.20;;;;;;;;;;5051291;28;20029;-76
2022/04/02 00:11:12;;;;;;;5.57;1.95;;;;;;;;;;5051192;28;20025;-76
2022/04/02 00:13:38;;;;;;;3.83;1.95;;;;;;;;;;5059417;28;20028;-76
2022/04/02 00:16:05;;;;;;;2.90;2.00;;;;;;;;;;5071128;28;20039;-76
2022/04/02 00:18:31;;;;;;;7.30;1.90;;;;;;;;;;5071316;28;20048;-75
2022/04/02 00:20:58;;;;;;;5.10;1.80;;;;;;;;;;5070876;28;20027;-76
2022/04/02 00:23:40;;;;;;;8.10;2.05;;;;;;;;;;5071047;28;20055;-76
2022/04/02 00:26:09;;;;;;;6.50;2.30;;;;;;;;;;5071071;28;20029;-76
2022/04/02 00:28:36;;;;;;;2.88;1.90;;;;;;;;;;5071205;28;20254;-76
2022/04/02 00:31:03;;;;;;;4.85;2.40;;;;;;;;;;5073030;28;20033;-76
2022/04/02 00:33:30;;;;;;;6.03;2.10;;;;;;;;;;5074875;28;20028;-76
2022/04/02 00:35:56;;;;;;;13.95;2.47;;;;;;;;;;5074553;28;20059;-76
2022/04/02 00:38:22;;;;;;;6.40;2.70;;;;;;;;;;5074515;28;20054;-76
2022/04/02 00:40:48;;;;;;;4.50;1.73;;;;;;;;;;5070523;28;20028;-76
2022/04/02 00:43:26;;;;;;;5.68;3.22;;;;;;;;;;5054526;28;20025;-76
2022/04/02 00:45:53;;;;;;;7.68;2.78;;;;;;;;;;5054469;28;20498;-76
2022/04/02 00:48:19;;;;;;;10.38;2.72;;;;;;;;;;5054403;28;20017;-76
2022/04/02 00:50:46;;;;;;;6.90;2.47;;;;;;;;;;5054278;28;20091;-76
2022/04/02 00:53:13;;;;;;;5.18;2.58;;;;;;;;;;5054377;28;20510;-76
2022/04/02 00:55:41;;;;;;;8.13;2.42;;;;;;;;;;5036035;28;20028;-76
2022/04/02 00:58:08;;;;;;;9.63;2.40;;;;;;;;;;5054274;28;20047;-76
2022/04/02 01:00:34;;;;;;;5.13;2.40;;;;;;;;;;5054001;28;20037;-76
2022/04/02 01:03:01;;;;;;;5.15;2.58;;;;;;;;;;5035992;28;20031;-76
2022/04/02 01:05:27;;;;;;;6.35;2.38;;;;;;;;;;5054126;28;20074;-76
2022/04/02 01:07:54;;;;;;;7.60;2.00;;;;;;;;;;5053936;28;20127;-75
2022/04/02 01:10:20;;;;;;;5.68;2.42;;;;;;;;;;5054072;28;20033;-76
2022/04/02 01:12:46;;;;;;;6.82;2.20;;;;;;;;;;5054676;28;20025;-76
2022/04/02 01:15:12;;;;;;;8.55;2.70;;;;;;;;;;5073820;28;20041;-76
2022/04/02 01:17:40;;;;;;;3.83;1.98;;;;;;;;;;5073900;28;20488;-76
2022/04/02 01:20:09;;;;;;;5.40;1.67;;;;;;;;;;5073655;28;20020;-75
2022/04/02 01:22:35;;;;;;;4.15;2.35;;;;;;;;;;5073682;28;20032;-76
2022/04/02 01:25:01;;;;;;;3.83;2.03;;;;;;;;;;5073507;28;20048;-76
2022/04/02 01:27:27;;;;;;;4.82;2.30;;;;;;;;;;5073466;28;20024;-76
2022/04/02 01:29:53;;;;;;;5.75;1.88;;;;;;;;;;5073657;28;20032;-76
2022/04/02 01:32:21;;;;;;;3.97;1.92;;;;;;;;;;5073578;28;20016;-76
2022/04/02 01:34:47;;;;;;;8.07;2.25;;;;;;;;;;5073334;28;20419;-76
2022/04/02 01:37:19;;;;;;;4.95;1.90;;;;;;;;;;5073384;28;20113;-76
2022/04/02 01:39:45;;;;;;;4.70;2.63;;;;;;;;;;5055135;28;20035;-76
2022/04/02 01:42:13;;;;;;;4.65;2.22;;;;;;;;;;5072369;28;20020;-76
2022/04/02 01:44:41;;;;;;;4.45;2.60;;;;;;;;;;5073241;28;20199;-76
2022/04/02 01:47:07;;;;;;;5.30;2.20;;;;;;;;;;5073231;28;20104;-76
2022/04/02 01:49:33;;;;;;;7.45;3.22;;;;;;;;;;5073064;28;20027;-76
2022/04/02 01:51:59;;;;;;;4.30;2.33;;;;;;;;;;5072972;28;20027;-76
2022/04/02 01:54:25;;;;;;;3.55;1.75;;;;;;;;;;5072930;28;20056;-76
2022/04/02 01:56:51;;;;;;;3.85;2.10;;;;;;;;;;5072941;28;20021;-76
2022/04/02 01:59:17;;;;;;;5.45;1.98;;;;;;;;;;5072815;28;20074;-74
2022/04/02 02:01:43;;;;;;;5.82;2.65;;;;;;;;;;5072610;28;20098;-75
2022/04/02 02:04:09;;;;;;;3.28;1.63;;;;;;;;;;5072547;28;20474;-74
2022/04/02 02:06:38;;;;;;;4.28;2.28;;;;;;;;;;5072511;28;20082;-75
2022/04/02 02:09:05;;;;;;;3.20;1.95;;;;;;;;;;5072500;28;20036;-74
2022/04/02 02:11:31;;;;;;;5.47;1.95;;;;;;;;;;5072648;28;20069;-74
2022/04/02 02:13:58;;;;;;;4.18;1.92;;;;;;;;;;5072311;28;20027;-74
2022/04/02 02:16:24;;;;;;;3.92;2.08;;;;;;;;;;5072495;28;20060;-74
2022/04/02 02:18:50;;;;;;;3.10;2.10;;;;;;;;;;5072408;28;20033;-74
2022/04/02 02:21:17;;;;;;;15.23;2.30;;;;;;;;;;5072081;28;20032;-74
2022/04/02 02:23:43;;;;;;;3.67;2.00;;;;;;;;;;5072373;28;20048;-74
2022/04/02 02:26:09;;;;;;;4.60;2.00;;;;;;;;;;5072140;28;20411;-74
2022/04/02 02:28:35;;;;;;;4.63;1.92;;;;;;;;;;5072177;28;20024;-74
2022/04/02 02:31:01;;;;;;;4.38;2.20;;;;;;;;;;5072197;28;20501;-74
2022/04/02 02:36:11;;;;;;;3.85;1.50;;;;;;;;;;5072113;28;20161;-74
2022/04/02 02:38:37;;;;;;;5.82;1.90;;;;;;;;;;5072305;28;20556;-74
2022/04/02 02:41:04;;;;;;;3.40;1.80;;;;;;;;;;5065978;28;20021;-74
2022/04/02 02:43:30;;;;;;;4.05;1.88;;;;;;;;;;5052243;28;20013;-74
2022/04/02 02:45:56;;;;;;;9.45;1.88;;;;;;;;;;5052079;28;20051;-74
2022/04/02 02:48:22;;;;;;;4.28;1.77;;;;;;;;;;5052114;28;20107;-74
2022/04/02 02:50:48;;;;;;;5.03;2.00;;;;;;;;;;5033971;28;20459;-74
2022/04/02 02:53:14;;;;;;;5.22;2.10;;;;;;;;;;5051221;28;20090;-74
2022/04/02 02:55:40;;;;;;;3.88;2.53;;;;;;;;;;5051501;28;20037;-74
2022/04/02 02:58:08;;;;;;;4.60;1.77;;;;;;;;;;5052034;28;20382;-74
2022/04/02 03:00:34;;;;;;;6.72;2.25;;;;;;;;;;5051775;28;20104;-74
2022/04/02 03:03:00;;;;;;;6.55;2.15;;;;;;;;;;5033943;28;20427;-74
2022/04/02 03:05:26;;;;;;;4.82;2.10;;;;;;;;;;5033751;28;20047;-74
2022/04/02 03:07:52;;;;;;;8.50;1.90;;;;;;;;;;5051689;28;20021;-74
2022/04/02 03:10:19;;;;;;;5.20;2.13;;;;;;;;;;5051674;28;20044;-74
2022/04/02 03:12:45;;;;;;;4.50;1.80;;;;;;;;;;5052361;28;20525;-74
2022/04/02 03:15:12;;;;;;;3.67;1.88;;;;;;;;;;5071699;28;20492;-74
2022/04/02 03:17:38;;;;;;;6.50;2.10;;;;;;;;;;5071765;28;20081;-74
2022/04/02 03:20:05;;;;;;;2.65;1.45;;;;;;;;;;5071393;28;20044;-74
2022/04/02 03:22:35;;;;;;;5.95;1.90;;;;;;;;;;5071585;28;20029;-74
2022/04/02 03:25:01;;;;;;;4.70;1.88;;;;;;;;;;5053410;28;20025;-74
2022/04/02 03:27:27;;;;;;;4.07;1.80;;;;;;;;;;5071397;28;20024;-74
2022/04/02 03:29:54;;;;;;;3.35;1.88;;;;;;;;;;5071522;28;20029;-74
2022/04/02 03:32:20;;;;;;;3.40;1.58;;;;;;;;;;5071524;28;20024;-74
2022/04/02 03:34:46;;;;;;;4.57;1.75;;;;;;;;;;5071489;28;20033;-74
2022/04/02 03:37:13;;;;;;;4.63;1.90;;;;;;;;;;5071480;28;20039;-74
2022/04/02 03:39:39;;;;;;;4.18;1.60;;;;;;;;;;5071238;28;20028;-74
2022/04/02 03:42:05;;;;;;;5.07;1.80;;;;;;;;;;5056866;28;20025;-74
2022/04/02 03:44:31;;;;;;;3.03;1.75;;;;;;;;;;5033397;28;20020;-74
2022/04/02 03:47:10;;;;;;;4.55;2.10;;;;;;;;;;5051242;28;20395;-74
2022/04/02 03:49:37;;;;;;;5.03;1.85;;;;;;;;;;5051343;28;20025;-74
2022/04/02 03:52:03;;;;;;;5.35;2.00;;;;;;;;;;5051244;28;20024;-74
2022/04/02 03:54:29;;;;;;;3.05;1.80;;;;;;;;;;5051163;28;20053;-74
2022/04/02 03:56:55;;;;;;;3.53;1.73;;;;;;;;;;5051118;28;20398;-74
2022/04/02 03:59:21;;;;;;;3.53;1.63;;;;;;;;;;5051117;28;20029;-74
2022/04/02 04:01:47;;;;;;;4.03;1.70;;;;;;;;;;5051132;28;20044;-74
2022/04/02 04:04:13;;;;;;;2.70;1.55;;;;;;;;;;5051230;28;20028;-74
2022/04/02 04:06:39;;;;;;;4.25;1.98;;;;;;;;;;5054420;28;20071;-74
2022/04/02 04:09:05;;;;;;;3.53;1.70;;;;;;;;;;5055023;28;20025;-74
2022/04/02 04:11:33;;;;;;;5.82;1.90;;;;;;;;;;5054983;28;20032;-74
2022/04/02 04:13:59;;;;;;;4.57;2.15;;;;;;;;;;5065985;28;20354;-74
2022/04/02 04:16:25;;;;;;;6.40;2.08;;;;;;;;;;5074902;28;20119;-74
2022/04/02 04:18:51;;;;;;;4.70;1.77;;;;;;;;;;5074816;28;20462;-74
2022/04/02 04:21:18;;;;;;;5.43;1.90;;;;;;;;;;5074657;28;20486;-74
2022/04/02 04:23:44;;;;;;;3.55;2.05;;;;;;;;;;5074915;28;20033;-74
2022/04/02 04:26:11;;;;;;;4.15;1.85;;;;;;;;;;5074613;28;20029;-74
2022/04/02 04:28:37;;;;;;;6.07;1.95;;;;;;;;;;5074724;28;20023;-74
2022/04/02 04:31:04;;;;;;;3.05;1.60;;;;;;;;;;5074646;28;20359;-74
2022/04/02 04:33:30;;;;;;;3.92;2.08;;;;;;;;;;5074750;28;20044;-74
2022/04/02 04:35:56;;;;;;;6.45;2.15;;;;;;;;;;5074511;28;20028;-74
2022/04/02 04:38:22;;;;;;;7.10;2.28;;;;;;;;;;5074762;28;20032;-74
2022/04/02 04:40:48;;;;;;;5.65;2.08;;;;;;;;;;5070457;28;20021;-74
2022/04/02 04:43:14;;;;;;;3.67;1.80;;;;;;;;;;5054629;28;20221;-74
2022/04/02 04:45:40;;;;;;;3.60;2.00;;;;;;;;;;5054507;28;20028;-74
2022/04/02 04:48:06;;;;;;;8.90;1.92;;;;;;;;;;5054475;28;20021;-74
2022/04/02 04:50:32;;;;;;;3.60;2.33;;;;;;;;;;5054370;28;20029;-73
2022/04/02 04:52:58;;;;;;;3.78;1.85;;;;;;;;;;5054227;28;20463;-74
2022/04/02 04:55:25;;;;;;;5.13;2.58;;;;;;;;;;5054129;28;20061;-74
2022/04/02 04:57:51;;;;;;;5.38;2.08;;;;;;;;;;5054092;28;20090;-74
2022/04/02 05:00:17;;;;;;;5.63;2.13;;;;;;;;;;5054078;28;20455;-74
2022/04/02 05:02:47;;;;;;;5.38;2.60;;;;;;;;;;5054276;28;20031;-73
2022/04/02 05:05:14;;;;;;;3.80;2.33;;;;;;;;;;5054093;28;20051;-74
2022/04/02 05:07:40;;;;;;;3.92;2.10;;;;;;;;;;5054001;28;20032;-74
2022/04/02 05:10:07;;;;;;;4.80;2.10;;;;;;;;;;5054000;28;20490;-73
2022/04/02 05:12:34;;;;;;;4.63;2.00;;;;;;;;;;5053833;28;20382;-74
2022/04/02 05:15:00;;;;;;;4.65;2.22;;;;;;;;;;5073347;28;20025;-74
2022/04/02 05:17:26;;;;;;;6.38;2.40;;;;;;;;;;5072857;28;20394;-74
2022/04/02 05:19:52;;;;;;;7.93;2.58;;;;;;;;;;5073509;28;20031;-74
2022/04/02 05:22:19;;;;;;;7.45;2.40;;;;;;;;;;5073731;28;20029;-74
2022/04/02 05:24:45;;;;;;;6.07;2.22;;;;;;;;;;5074129;28;20024;-74
2022/04/02 05:27:11;;;;;;;4.40;1.90;;;;;;;;;;5073606;28;20120;-73
2022/04/02 05:29:37;;;;;;;7.07;2.40;;;;;;;;;;5073543;28;20035;-74
2022/04/02 05:32:03;;;;;;;6.28;2.47;;;;;;;;;;5073709;28;20031;-74
2022/04/02 05:34:30;;;;;;;6.43;2.22;;;;;;;;;;5073508;28;20024;-74
2022/04/02 05:36:56;;;;;;;5.95;2.22;;;;;;;;;;5073581;28;20028;-74
2022/04/02 05:39:23;;;;;;;4.80;2.70;;;;;;;;;;5073449;28;20029;-74
2022/04/02 05:41:49;;;;;;;8.25;2.53;;;;;;;;;;5073187;28;20032;-74
2022/04/02 05:44:15;;;;;;;8.05;2.28;;;;;;;;;;5073450;28;20127;-74
2022/04/02 05:46:41;;;;;;;8.95;2.38;;;;;;;;;;5073265;28;20033;-74
2022/04/02 05:49:08;;;;;;;4.32;2.08;;;;;;;;;;5073230;28;20021;-74
2022/04/02 05:51:34;;;;;;;4.90;2.50;;;;;;;;;;5073177;28;20050;-74
2022/04/02 05:54:00;;;;;;;7.00;2.25;;;;;;;;;;5072961;28;20044;-74
2022/04/02 05:56:26;;;;;;;4.82;2.17;;;;;;;;;;5072984;28;20040;-74
2022/04/02 05:58:53;;;;;;;7.47;2.72;;;;;;;;;;5073096;28;20054;-74
2022/04/02 06:01:19;;;;;;;6.22;2.20;;;;;;;;;;5072944;28;20433;-73
2022/04/02 06:03:47;;;;;;;7.03;2.28;;;;;;;;;;5073042;28;20030;-74
2022/04/02 06:06:13;;;;;;;8.05;2.67;;;;;;;;;;5072806;28;20095;-74
2022/04/02 06:08:39;;;;;;;6.25;2.42;;;;;;;;;;5072870;28;20040;-74
2022/04/02 06:11:07;;;;;;;4.32;2.40;;;;;;;;;;5054635;28;20033;-74
2022/04/02 06:13:34;;;;;;;6.03;2.40;;;;;;;;;;5072674;28;20500;-74
2022/04/02 06:16:00;;;;;;;7.80;2.60;;;;;;;;;;5072707;28;20033;-74
2022/04/02 06:18:26;;;;;;;5.22;2.22;;;;;;;;;;5072727;28;20055;-74
2022/04/02 06:20:52;;;;;;;5.97;2.15;;;;;;;;;;5050953;28;20048;-74
2022/04/02 06:23:18;;;;;;;4.72;2.58;;;;;;;;;;5052486;28;20036;-74
2022/04/02 06:25:44;;;;;;;9.05;3.00;;;;;;;;;;5052357;28;20098;-74
2022/04/02 06:28:10;;;;;;;5.88;2.72;;;;;;;;;;5052232;28;20028;-74
2022/04/02 06:30:36;;;;;;;41.95;4.78;;;;;;;;;;5060896;28;20104;-74
2022/04/02 06:33:03;;;;;;;12.80;2.92;;;;;;;;;;5072396;28;20028;-74
2022/04/02 06:35:29;;;;;;;6.13;2.33;;;;;;;;;;5054061;28;20340;-74
2022/04/02 06:37:56;;;;;;;8.48;2.60;;;;;;;;;;5072154;28;20105;-74
2022/04/02 06:40:23;;;;;;;6.95;2.40;;;;;;;;;;5071855;28;20024;-74
2022/04/02 06:42:49;;;;;;;5.53;2.47;;;;;;;;;;5072074;28;20078;-74
2022/04/02 06:45:15;;;;;;;10.15;2.53;;;;;;;;;;5072060;28;20413;-74
2022/04/02 06:47:41;;;;;;;6.43;2.17;;;;;;;;;;5072113;28;20017;-74
2022/04/02 06:50:09;;;;;;;5.20;2.45;;;;;;;;;;5071961;28;20078;-74
2022/04/02 06:52:35;;;;;;;4.82;2.42;;;;;;;;;;5053899;28;20474;-74
2022/04/02 06:55:01;;;;;;;8.15;2.50;;;;;;;;;;5071840;28;20182;-74
2022/04/02 06:57:28;;;;;;;6.65;2.90;;;;;;;;;;5071785;28;20032;-74
2022/04/02 06:59:54;;;;;;;5.72;2.42;;;;;;;;;;5071809;28;20054;-74
2022/04/02 07:02:21;;;;;;;4.55;2.38;;;;;;;;;;5071936;28;20374;-73
2022/04/02 07:04:47;;;;;;;7.40;2.28;;;;;;;;;;5053676;28;20020;-74
2022/04/02 07:07:13;;;;;;;7.38;2.17;;;;;;;;;;5071780;28;20075;-73
2022/04/02 07:09:39;;;;;;;6.38;2.30;;;;;;;;;;5071752;28;20510;-74
2022/04/02 07:12:06;;;;;;;5.40;2.30;;;;;;;;;;5071694;28;20029;-74
2022/04/02 07:14:33;;;;;;;7.30;2.65;;;;;;;;;;5071574;28;20027;-74
2022/04/02 07:16:59;;;;;;;5.45;2.70;;;;;;;;;;5071596;28;20043;-74
2022/04/02 07:19:25;;;;;;;5.35;2.30;;;;;;;;;;5071331;28;20493;-74
2022/04/02 07:21:52;;;;;;;7.68;2.70;;;;;;;;;;5071505;28;20025;-74
2022/04/02 07:24:18;;;;;;;3.92;2.60;;;;;;;;;;5071848;28;20040;-74
2022/04/02 07:26:47;;;;;;;3.78;2.30;;;;;;;;;;5071453;28;20521;-74
2022/04/02 07:29:14;;;;;;;4.85;2.70;;;;;;;;;;5071652;28;20467;-74
2022/04/02 07:31:41;;;;;;;7.95;2.35;;;;;;;;;;5071639;28;20034;-74
2022/04/02 07:34:08;;;;;;;9.13;3.55;;;;;;;;;;5071391;28;20125;-74
2022/04/02 07:36:36;;;;;;;6.00;2.92;;;;;;;;;;5071524;28;20044;-74
2022/04/02 07:39:04;;;;;;;5.90;3.05;;;;;;;;;;5071496;28;20029;-74
2022/04/02 07:41:43;;;;;;;6.50;2.90;;;;;;;;;;5074442;28;20024;-74
2022/04/02 07:44:18;;;;;;;5.20;2.53;;;;;;;;;;5075568;28;20028;-74
2022/04/02 07:46:46;;;;;;;5.82;2.70;;;;;;;;;;5075418;28;20378;-74
2022/04/02 07:49:12;;;;;;;8.27;2.85;;;;;;;;;;5075380;28;20028;-74
2022/04/02 07:51:39;;;;;;;5.45;2.50;;;;;;;;;;5075401;28;20074;-74
2022/04/02 07:54:07;;;;;;;6.05;2.67;;;;;;;;;;5075082;28;20068;-74
2022/04/02 07:56:37;;;;;;;5.88;2.63;;;;;;;;;;5075241;28;20679;-74
2022/04/02 07:59:15;;;;;;;5.97;2.58;;;;;;;;;;5075159;28;20050;-74
2022/04/02 08:01:43;;;;;;;5.20;2.92;;;;;;;;;;5075326;28;20478;-74
2022/04/02 08:04:12;;;;;;;10.30;3.67;;;;;;;;;;5075259;28;20530;-74
2022/04/02 08:06:39;;;;;;;7.15;3.80;;;;;;;;;;5075079;28;20028;-74
2022/04/02 08:09:07;;;;;;;9.88;4.22;;;;;;;;;;5075060;28;20040;-74
2022/04/02 08:11:34;;;;;;;14.70;4.30;;;;;;;;;;5074930;28;20059;-74
2022/04/02 08:14:01;;;;;;;7.80;3.90;;;;;;;;;;5056795;28;20056;-74
2022/04/02 08:16:28;;;;;;;6.10;3.00;;;;;;;;;;5074951;28;20035;-74
2022/04/02 08:18:57;;;;;;;6.53;3.20;;;;;;;;;;5074925;28;20035;-74
2022/04/02 08:21:23;;;;;;;4.75;3.28;;;;;;;;;;5056720;28;20107;-73
2022/04/02 08:23:49;;;;;;;8.68;3.80;;;;;;;;;;5056799;28;20020;-74
2022/04/02 08:26:21;;;;;;;8.25;3.42;;;;;;;;;;5074583;28;20048;-73
2022/04/02 08:28:47;;;;;;;7.70;2.92;;;;;;;;;;5074877;28;20012;-74
2022/04/02 08:31:16;;;;;;;7.47;3.47;;;;;;;;;;5074651;28;20432;-74
2022/04/02 08:33:48;;;;;;;8.48;3.55;;;;;;;;;;5074680;28;20028;-73
2022/04/02 08:36:21;;;;;;;6.50;3.60;;;;;;;;;;5074466;28;20027;-74
2022/04/02 08:38:47;;;;;;;8.55;4.38;;;;;;;;;;5074645;28;20158;-74
2022/04/02 08:41:13;;;;;;;10.43;3.58;;;;;;;;;;5067143;28;20171;-74
2022/04/02 08:43:39;;;;;;;11.07;3.50;;;;;;;;;;5054586;28;20120;-74
2022/04/02 08:46:05;;;;;;;9.05;2.95;;;;;;;;;;5054503;28;20025;-74
2022/04/02 08:48:35;;;;;;;8.40;3.60;;;;;;;;;;5054429;28;20025;-74
2022/04/02 08:51:11;;;;;;;7.45;3.30;;;;;;;;;;5054362;28;20068;-74
2022/04/02 08:53:56;;;;;;;5.43;2.65;;;;;;;;;;5054133;28;20049;-74
2022/04/02 08:56:25;;;;;;;8.15;2.85;;;;;;;;;;5054072;28;20020;-74
2022/04/02 08:59:14;;;;;;;8.60;3.30;;;;;;;;;;5054206;28;20518;-75
2022/04/02 09:01:50;;;;;;;11.10;4.00;;;;;;;;;;5054101;28;20533;-74
2022/04/02 09:04:16;;;;;;;7.65;3.45;;;;;;;;;;5054374;28;20056;-74
2022/04/02 09:06:42;;;;;;;8.25;4.40;;;;;;;;;;5054371;28;20017;-74
2022/04/02 09:09:14;;;;;;;10.63;4.50;;;;;;;;;;5054358;28;20021;-74
2022/04/02 09:11:53;;;;;;;9.10;3.47;;;;;;;;;;5053951;28;20029;-74
2022/04/02 09:14:28;;;;;;;7.65;3.13;;;;;;;;;;5049371;28;20032;-73
2022/04/02 09:17:13;;;;;;;5.15;2.30;;;;;;;;;;5073863;28;20066;-74
2022/04/02 09:19:55;;;;;;;5.32;2.10;;;;;;;;;;5073714;28;20025;-74
2022/04/02 09:22:56;;;;;;;4.55;2.40;;;;;;;;;;5073663;28;20432;-73
2022/04/02 09:25:40;;;;;;;6.20;1.95;;;;;;;;;;4991979;28;20046;-73
2022/04/02 09:28:26;;;;;;;5.50;1.90;;;;;;;;;;4992047;28;20045;-74
2022/04/02 09:30:55;;;;;;;3.95;1.70;;;;;;;;;;4992007;28;20105;-74
2022/04/02 09:33:36;;;;;;;4.90;2.00;;;;;;;;;;4991994;28;20124;-73
2022/04/02 09:36:20;;;;;;;5.32;1.90;;;;;;;;;;4991812;28;20137;-74
2022/04/02 09:38:46;;;;;;;5.22;2.00;;;;;;;;;;4992001;28;20634;-73
2022/04/02 09:41:12;;;;;;;5.88;2.10;;;;;;;;;;4991448;28;20157;-74
2022/04/02 09:43:38;;;;;;;4.55;2.20;;;;;;;;;;4991930;28;20030;-74
2022/04/02 09:46:24;;;;;;;4.18;1.65;;;;;;;;;;4991774;28;20047;-73
2022/04/02 09:48:50;;;;;;;4.53;1.90;;;;;;;;;;4991771;28;20488;-74
2022/04/02 09:51:16;;;;;;;2.63;1.63;;;;;;;;;;4991606;28;20078;-73
2022/04/02 09:53:47;;;;;;;4.80;1.48;;;;;;;;;;4991309;28;20100;-74
2022/04/02 09:56:16;;;;;;;3.63;2.13;;;;;;;;;;4991499;28;20524;-75
2022/04/02 09:59:01;;;;;;;5.10;1.63;;;;;;;;;;5006432;28;20048;-76
2022/04/02 10:01:31;;;;;;;5.15;1.48;;;;;;;;;;5035165;28;20398;-76
2022/04/02 10:04:01;;;;;;;4.97;1.45;;;;;;;;;;5052401;28;20025;-76
2022/04/02 10:06:41;;;;;;;4.20;1.40;;;;;;;;;;5052923;28;20025;-76
2022/04/02 10:09:08;;;;;;;2.33;1.20;;;;;;;;;;5034955;28;20036;-76
2022/04/02 10:11:35;;;;;;;3.88;1.38;;;;;;;;;;5052818;28;20100;-76
2022/04/02 10:14:02;;;;;;;5.50;1.60;;;;;;;;;;5052812;28;20091;-76
2022/04/02 10:16:29;;;;;;;14.82;2.50;;;;;;;;;;5052724;28;20475;-76
2022/04/02 10:18:57;;;;;;;16.83;2.35;;;;;;;;;;5054827;28;20067;-76
2022/04/02 10:21:23;;;;;;;4.55;1.65;;;;;;;;;;5072476;28;20024;-76
2022/04/02 10:24:06;;;;;;;3.53;1.42;;;;;;;;;;5072763;28;20024;-75
2022/04/02 10:26:37;;;;;;;3.70;1.42;;;;;;;;;;5072571;28;20028;-76
2022/04/02 10:29:09;;;;;;;2.35;1.20;;;;;;;;;;5072548;28;20383;-76
2022/04/02 10:31:35;;;;;;;6.25;1.33;;;;;;;;;;5072483;28;20033;-76
2022/04/02 10:34:08;;;;;;;6.22;1.52;;;;;;;;;;5072419;28;20086;-76
2022/04/02 10:36:39;;;;;;;5.50;1.65;;;;;;;;;;5072220;28;20029;-76
2022/04/02 10:39:05;;;;;;;3.65;1.45;;;;;;;;;;5054342;28;20036;-76
2022/04/02 10:41:32;;;;;;;5.18;1.70;;;;;;;;;;5072034;28;20036;-76
2022/04/02 10:44:06;;;;;;;3.72;1.42;;;;;;;;;;5072272;28;20494;-76
2022/04/02 10:46:33;;;;;;;13.38;2.00;;;;;;;;;;5054196;28;20020;-76
2022/04/02 10:49:07;;;;;;;11.57;2.10;;;;;;;;;;5072172;28;20052;-76
2022/04/02 10:51:36;;;;;;;3.15;1.42;;;;;;;;;;5072100;28;20032;-76
2022/04/02 10:54:03;;;;;;;3.40;1.40;;;;;;;;;;5071873;28;20076;-75
2022/04/02 10:56:42;;;;;;;3.05;1.50;;;;;;;;;;5071971;28;20482;-76
2022/04/02 10:59:09;;;;;;;9.45;1.88;;;;;;;;;;5072006;28;20025;-76
2022/04/02 11:01:39;;;;;;;4.63;1.48;;;;;;;;;;5071991;28;20032;-76
2022/04/02 11:04:10;;;;;;;6.22;1.88;;;;;;;;;;5053845;28;20024;-76
2022/04/02 11:06:44;;;;;;;3.38;1.52;;;;;;;;;;5071793;28;20096;-76
2022/04/02 11:09:25;;;;;;;4.60;1.48;;;;;;;;;;5071837;28;20017;-75
2022/04/02 11:11:52;;;;;;;5.13;1.70;;;;;;;;;;5071789;28;20032;-76
2022/04/02 11:14:21;;;;;;;3.05;1.58;;;;;;;;;;5071014;28;20025;-76
2022/04/02 11:16:48;;;;;;;4.32;1.42;;;;;;;;;;5071693;28;20025;-76
2022/04/02 11:22:09;;;;;;;8.15;1.90;;;;;;;;;;5071598;28;20585;-75
2022/04/02 11:24:40;;;;;;;5.35;2.10;;;;;;;;;;5053672;28;20032;-75
2022/04/02 11:27:07;;;;;;;6.55;1.90;;;;;;;;;;5071525;28;20020;-75
2022/04/02 11:29:34;;;;;;;6.00;1.88;;;;;;;;;;5053514;28;20035;-76
2022/04/02 11:32:01;;;;;;;8.40;1.80;;;;;;;;;;5071638;28;20097;-75
2022/04/02 11:34:28;;;;;;;2.72;1.35;;;;;;;;;;5071694;28;20123;-75
2022/04/02 11:36:59;;;;;;;4.70;1.42;;;;;;;;;;5071552;28;20028;-76
2022/04/02 11:39:33;;;;;;;3.75;1.70;;;;;;;;;;5071623;28;20040;-76
2022/04/02 11:42:03;;;;;;;2.92;1.40;;;;;;;;;;5057763;28;20044;-76
2022/04/02 11:44:36;;;;;;;2.65;1.30;;;;;;;;;;5051576;28;20028;-76
2022/04/02 11:47:06;;;;;;;4.65;1.85;;;;;;;;;;5051610;28;20313;-76
2022/04/02 11:49:39;;;;;;;3.72;1.40;;;;;;;;;;5051396;28;20463;-76
2022/04/02 11:52:05;;;;;;;;;;;;;;;;;;5051731;28;20729;-76
2022/04/02 11:54:31;;;;;;;3.25;1.25;;;;;;;;;;5051133;28;20003;-76
2022/04/02 11:57:17;;;;;;;2.67;1.48;;;;;;;;;;5051250;28;20033;-76
2022/04/02 11:59:51;;;;;;;5.30;1.38;;;;;;;;;;5051357;28;20056;-76
2022/04/02 12:02:35;;;;;;;2.17;1.30;;;;;;;;;;5051340;28;20107;-75
2022/04/02 12:05:02;;;;;;;14.55;1.40;;;;;;;;;;5033116;28;20025;-76
2022/04/02 12:07:43;;;;;;;10.15;1.85;;;;;;;;;;5051317;28;20025;-76
2022/04/02 12:10:19;;;;;;;3.05;1.20;;;;;;;;;;5051172;28;20033;-76
2022/04/02 12:12:46;;;;;;;4.05;1.60;;;;;;;;;;5051810;28;20371;-76
2022/04/02 12:15:12;;;;;;;2.63;1.40;;;;;;;;;;5071311;28;20382;-76
2022/04/02 12:17:39;;;;;;;7.82;1.45;;;;;;;;;;5071193;28;20386;-76
2022/04/02 12:20:10;;;;;;;3.53;1.40;;;;;;;;;;5071143;28;20379;-75
2022/04/02 12:22:39;;;;;;;4.60;1.27;;;;;;;;;;5070966;28;20024;-75
2022/04/02 12:25:05;;;;;;;5.38;1.23;;;;;;;;;;5052954;28;20039;-76
2022/04/02 12:27:35;;;;;;;3.33;1.00;;;;;;;;;;5073952;28;20024;-76
2022/04/02 12:30:04;;;;;;;10.45;1.50;;;;;;;;;;5074692;28;20032;-76
2022/04/02 12:32:44;;;;;;;2.45;1.00;;;;;;;;;;5074757;28;20040;-76
2022/04/02 12:35:12;;;;;;;3.22;1.15;;;;;;;;;;5074743;28;20052;-76
2022/04/02 12:37:44;;;;;;;4.03;1.30;;;;;;;;;;5074459;28;20097;-76
2022/04/02 12:40:40;;;;;;;1.80;1.00;;;;;;;;;;5074376;28;20024;-75
2022/04/02 12:43:07;;;;;;;2.92;1.15;;;;;;;;;;4992895;28;20097;-76
2022/04/02 12:45:34;;;;;;;2.72;1.30;;;;;;;;;;4992733;28;20499;-76
2022/04/02 12:48:00;;;;;;;4.25;1.00;;;;;;;;;;4992890;28;20496;-75
2022/04/02 12:50:26;;;;;;;3.03;1.13;;;;;;;;;;4992831;28;20077;-76
2022/04/02 12:52:52;;;;;;;5.45;1.50;;;;;;;;;;4992698;28;20046;-76
2022/04/02 12:55:20;;;;;;;7.50;1.35;;;;;;;;;;4992543;28;20380;-75
2022/04/02 12:58:01;;;;;;;3.88;1.30;;;;;;;;;;4992652;28;20039;-75
2022/04/02 13:00:37;;;;;;;6.35;0.95;;;;;;;;;;4992333;28;20064;-75
2022/04/02 13:03:05;;;;;;;2.78;1.00;;;;;;;;;;4992638;28;20061;-76
2022/04/02 13:05:46;;;;;;;3.15;1.10;;;;;;;;;;4992457;28;20086;-75
2022/04/02 13:08:19;;;;;;;5.70;0.80;;;;;;;;;;4992651;28;20103;-75
2022/04/02 13:10:48;;;;;;;2.95;0.93;;;;;;;;;;4992283;28;20046;-76
2022/04/02 13:13:15;;;;;;;6.43;1.20;;;;;;;;;;4992321;28;20034;-75
2022/04/02 13:15:51;;;;;;;2.78;0.80;;;;;;;;;;4992406;28;20026;-75
2022/04/02 13:21:08;;;;;;;1.55;0.77;;;;;;;;;;5073602;28;20482;-76
2022/04/02 13:23:40;;;;;;;2.50;0.90;;;;;;;;;;5073832;28;20043;-76
2022/04/02 13:26:06;;;;;;;6.55;1.27;;;;;;;;;;5073938;28;20096;-76
2022/04/02 13:28:47;;;;;;;3.67;1.40;;;;;;;;;;5073613;28;20025;-75
2022/04/02 13:31:14;;;;;;;11.95;2.70;;;;;;;;;;5073608;28;20033;-76
2022/04/02 13:33:50;;;;;;;2.15;0.90;;;;;;;;;;5073572;28;20032;-76
2022/04/02 13:36:36;;;;;;;5.28;1.15;;;;;;;;;;5073544;28;20489;-76
2022/04/02 13:39:09;;;;;;;5.10;1.08;;;;;;;;;;5058752;28;20125;-76
2022/04/02 13:41:51;;;;;;;3.40;0.90;;;;;;;;;;5063141;28;20029;-75
2022/04/02 13:44:21;;;;;;;7.80;1.07;;;;;;;;;;5053497;28;20051;-75
2022/04/02 13:46:54;;;;;;;4.72;1.27;;;;;;;;;;5053467;28;20028;-75
2022/04/02 13:49:20;;;;;;;;;;;;;;;;;;5035734;28;20497;-75
2022/04/02 13:51:55;;;;;;;4.50;1.35;;;;;;;;;;5053083;28;19913;-75
2022/04/02 13:54:23;;;;;;;6.05;0.93;;;;;;;;;;5053014;28;20029;-75
2022/04/02 13:56:59;;;;;;;5.60;1.30;;;;;;;;;;5053079;28;20066;-75
2022/04/02 13:59:28;;;;;;;3.45;1.38;;;;;;;;;;5053119;28;20029;-75
2022/04/02 14:01:54;;;;;;;8.30;1.30;;;;;;;;;;5053139;28;20086;-75
2022/04/02 14:04:26;;;;;;;3.35;1.20;;;;;;;;;;5053122;28;20029;-75
2022/04/02 14:06:55;;;;;;;2.72;1.30;;;;;;;;;;5052992;28;20033;-76
2022/04/02 14:09:25;;;;;;;2.90;1.50;;;;;;;;;;5052938;28;20025;-75
2022/04/02 14:11:55;;;;;;;3.58;1.30;;;;;;;;;;5052798;28;20021;-75
2022/04/02 14:14:23;;;;;;;2.33;1.20;;;;;;;;;;5066623;28;20032;-75
2022/04/02 14:17:01;;;;;;;2.88;1.30;;;;;;;;;;5072838;28;20021;-76
2022/04/02 14:19:34;;;;;;;4.63;1.27;;;;;;;;;;5072600;28;20474;-76
2022/04/02 14:22:02;;;;;;;4.22;1.00;;;;;;;;;;5072404;28;20040;-76
2022/04/02 14:24:32;;;;;;;2.83;1.15;;;;;;;;;;5072665;28;20485;-76
2022/04/02 14:27:08;;;;;;;4.53;1.15;;;;;;;;;;5072307;28;20032;-76
2022/04/02 14:29:49;;;;;;;3.13;1.15;;;;;;;;;;5072557;28;20020;-76
2022/04/02 14:32:34;;;;;;;2.70;1.30;;;;;;;;;;5052564;28;20459;-76
2022/04/02 14:35:09;;;;;;;3.53;1.30;;;;;;;;;;5052358;28;20036;-76
2022/04/02 14:38:08;;;;;;;2.38;0.98;;;;;;;;;;5052472;28;20037;-76
2022/04/02 14:40:34;;;;;;;2.92;1.17;;;;;;;;;;4953340;28;20031;-76
2022/04/02 14:43:00;;;;;;;3.55;1.08;;;;;;;;;;4971337;28;20370;-76
2022/04/02 14:45:41;;;;;;;2.70;1.17;;;;;;;;;;4971130;28;20343;-75
2022/04/02 14:48:07;;;;;;;4.65;1.40;;;;;;;;;;4954986;28;20031;-75
2022/04/02 14:50:57;;;;;;;5.68;1.48;;;;;;;;;;4970936;28;20100;-75
2022/04/02 14:53:41;;;;;;;4.30;1.65;;;;;;;;;;4971355;28;20237;-75
2022/04/02 14:56:11;;;;;;;4.13;1.52;;;;;;;;;;4970816;28;20055;-76
2022/04/02 14:58:55;;;;;;;4.68;1.73;;;;;;;;;;4971152;28;20042;-75
2022/04/02 15:01:36;;;;;;;3.20;2.00;;;;;;;;;;4970920;28;20039;-75
2022/04/02 15:04:05;;;;;;;3.50;2.20;;;;;;;;;;4970991;28;20041;-75